Time;durP1;ratioP1;P1;durP2;ratioP2;P2;SDS_P1;SDS_P2;PMS_P1;PMS_P2;Temp;Humidity;BMP_temperature;BMP_pressure;BME280_temperature;BME280_humidity;BME280_pressure;Samples;Min_cycle;Max_cycle;Signal;HPM_P1;HPM_P2
2022/05/22 00:01:40;;;;;;;12.85;6.25;;;;;;;13.51;71.69;102081.91;4978099;28;20139;-61
2022/05/22 00:04:06;;;;;;;15.40;6.53;;;;;;;13.50;71.78;102064.41;4984162;28;20140;-58
2022/05/22 00:06:31;;;;;;;12.93;6.80;;;;;;;13.48;71.75;102060.91;4976334;28;20033;-60
2022/05/22 00:08:56;;;;;;;12.02;6.25;;;;;;;13.50;71.63;102053.94;4981715;28;20509;-59
2022/05/22 00:11:22;;;;;;;14.07;6.28;;;;;;;13.49;71.39;102044.31;4982432;28;20091;-60
2022/05/22 00:13:48;;;;;;;13.55;6.38;;;;;;;13.46;71.77;102052.13;4979875;28;20907;-59
2022/05/22 00:18:58;;;;;;;13.32;6.20;;;;;;;13.42;71.36;102045.91;4980717;28;20073;-58
2022/05/22 00:21:24;;;;;;;11.93;6.55;;;;;;;13.39;71.58;102059.84;4979957;28;20046;-60
2022/05/22 00:23:49;;;;;;;15.50;6.30;;;;;;;13.38;71.08;102051.97;4985676;28;20104;-58
2022/05/22 00:26:15;;;;;;;11.13;6.00;;;;;;;13.35;71.28;102050.19;4977275;28;20294;-59
2022/05/22 00:28:40;;;;;;;13.25;6.28;;;;;;;13.33;71.29;102037.88;4979787;28;20045;-59
2022/05/22 00:31:05;;;;;;;13.05;6.35;;;;;;;13.32;71.54;102052.72;4982541;28;20261;-60
2022/05/22 00:33:31;;;;;;;13.65;6.00;;;;;;;13.32;71.27;102051.81;4982241;28;20040;-58
2022/05/22 00:35:56;;;;;;;11.40;6.30;;;;;;;13.30;71.37;102059.66;4978778;28;20041;-61
2022/05/22 00:38:22;;;;;;;14.95;6.07;;;;;;;13.28;71.35;102064.00;4974186;28;20584;-59
2022/05/22 00:40:47;;;;;;;13.90;6.00;;;;;;;13.28;71.35;102057.88;4984179;28;20085;-59
2022/05/22 00:43:30;;;;;;;13.25;6.00;;;;;;;13.26;71.55;102055.22;4980669;28;20560;-60
2022/05/22 00:45:57;;;;;;;17.90;6.18;;;;;;;13.23;71.77;102059.50;4978849;28;20050;-59
2022/05/22 00:48:23;;;;;;;15.00;6.03;;;;;;;13.19;71.86;102055.03;4978592;28;20038;-58
2022/05/22 00:50:51;;;;;;;14.15;6.03;;;;;;;13.20;71.88;102043.72;4978163;28;20047;-60
2022/05/22 00:53:18;;;;;;;11.98;6.00;;;;;;;13.18;72.11;102034.94;4981329;28;20145;-60
2022/05/22 00:55:44;;;;;;;13.70;6.65;;;;;;;13.16;71.95;102039.28;4978865;28;20492;-60
2022/05/22 00:58:24;;;;;;;15.55;6.85;;;;;;;13.14;72.20;102034.00;4983805;28;20083;-60
2022/05/22 01:00:50;;;;;;;13.60;7.00;;;;;;;13.12;72.13;102037.38;4976900;28;20100;-60
2022/05/22 01:03:27;;;;;;;12.05;6.85;;;;;;;13.08;71.88;102041.69;4986947;28;20575;-60
2022/05/22 01:05:54;;;;;;;14.05;6.93;;;;;;;13.07;71.78;102039.91;4983180;28;20072;-60
2022/05/22 01:08:19;;;;;;;15.32;6.88;;;;;;;13.06;72.17;102046.00;4973424;28;20391;-59
2022/05/22 01:10:56;;;;;;;12.85;6.60;;;;;;;13.05;71.61;102040.75;4982042;28;20485;-60
2022/05/22 01:13:26;;;;;;;17.98;7.40;;;;;;;13.04;71.61;102047.72;4979628;28;20054;-59
2022/05/22 01:15:52;;;;;;;19.42;7.45;;;;;;;13.04;71.78;102049.44;4981878;28;20045;-60
2022/05/22 01:18:17;;;;;;;12.13;6.93;;;;;;;13.02;71.99;102049.41;4972958;28;20041;-59
2022/05/22 01:20:48;;;;;;;16.00;7.70;;;;;;;13.01;71.79;102045.00;4976898;28;20026;-59
2022/05/22 01:23:15;;;;;;;14.32;7.45;;;;;;;13.01;71.96;102048.53;4979439;28;20081;-60
2022/05/22 01:25:40;;;;;;;17.13;7.43;;;;;;;12.99;72.06;102037.13;4978870;28;20030;-58
2022/05/22 01:28:08;;;;;;;14.63;7.22;;;;;;;12.96;71.99;102026.59;4975291;28;20057;-59
2022/05/22 01:30:33;;;;;;;17.35;6.63;;;;;;;12.96;72.04;102028.34;4981441;28;20041;-61
2022/05/22 01:32:58;;;;;;;18.75;7.40;;;;;;;12.93;72.08;102029.13;4978947;28;20050;-59
2022/05/22 01:35:26;;;;;;;13.07;6.60;;;;;;;12.93;71.98;102016.03;4981128;28;20151;-59
2022/05/22 01:37:52;;;;;;;15.93;6.78;;;;;;;12.89;71.96;102014.22;4980490;28;20148;-60
2022/05/22 01:40:19;;;;;;;13.30;6.78;;;;;;;12.88;72.23;102012.44;4974657;28;20048;-60
2022/05/22 01:42:45;;;;;;;15.07;6.32;;;;;;;12.88;72.14;102006.34;4979946;28;20046;-60
2022/05/22 01:45:14;;;;;;;16.38;7.05;;;;;;;12.87;72.08;102001.94;4982665;28;20176;-58
2022/05/22 01:47:39;;;;;;;14.18;6.63;;;;;;;12.86;72.18;101994.97;4984303;28;20050;-60
2022/05/22 01:50:07;;;;;;;19.98;7.25;;;;;;;12.84;72.47;101997.53;4978646;28;20405;-58
2022/05/22 01:52:32;;;;;;;16.10;7.13;;;;;;;12.85;72.60;101998.44;4982774;28;20548;-60
2022/05/22 01:54:58;;;;;;;18.05;7.60;;;;;;;12.83;72.42;101998.38;4975228;28;20068;-60
2022/05/22 01:57:23;;;;;;;14.40;7.47;;;;;;;12.82;72.54;101998.34;4983947;28;20049;-60
2022/05/22 01:59:48;;;;;;;12.43;6.63;;;;;;;12.78;72.14;101983.44;4975560;28;20351;-59
2022/05/22 02:02:14;;;;;;;16.60;6.82;;;;;;;12.78;72.18;101983.44;4973807;28;20030;-60
2022/05/22 02:04:39;;;;;;;16.17;7.03;;;;;;;12.74;72.11;101986.84;4980058;28;20133;-58
2022/05/22 02:09:49;;;;;;;16.35;6.93;;;;;;;12.74;72.51;101985.13;4978724;28;20073;-60
2022/05/22 02:12:14;;;;;;;13.70;6.75;;;;;;;12.73;72.06;101985.97;4975194;28;20046;-60
2022/05/22 02:14:39;;;;;;;15.50;6.70;;;;;;;12.72;72.34;101983.31;4981967;28;20130;-60
2022/05/22 02:17:05;;;;;;;14.88;6.78;;;;;;;12.71;72.43;101985.03;4984098;28;20111;-60
2022/05/22 02:19:31;;;;;;;17.20;7.10;;;;;;;12.70;72.34;101980.63;4981814;28;20046;-60
2022/05/22 02:21:56;;;;;;;15.18;7.00;;;;;;;12.67;72.62;101975.34;4978220;28;20046;-58
2022/05/22 02:24:21;;;;;;;14.82;7.03;;;;;;;12.64;72.79;101962.19;4973653;28;21851;-60
2022/05/22 02:26:47;;;;;;;13.82;6.80;;;;;;;12.63;72.68;101959.53;4981892;28;20108;-59
2022/05/22 02:29:12;;;;;;;14.00;6.85;;;;;;;12.62;72.33;101958.69;4982833;28;20119;-59
2022/05/22 02:31:37;;;;;;;14.13;6.85;;;;;;;12.62;72.72;101960.41;4975794;28;20045;-58
2022/05/22 02:34:03;;;;;;;14.07;6.90;;;;;;;12.62;72.72;101963.03;4972739;28;20049;-59
2022/05/22 02:36:28;;;;;;;15.48;7.18;;;;;;;12.57;72.78;101958.56;4980146;28;20135;-59
2022/05/22 02:38:54;;;;;;;14.23;6.85;;;;;;;12.57;72.70;101958.56;4984798;28;20046;-58
2022/05/22 02:41:20;;;;;;;15.43;7.03;;;;;;;12.58;72.82;101959.44;4988175;28;20501;-58
2022/05/22 02:43:46;;;;;;;14.38;7.10;;;;;;;12.57;72.85;101955.94;4963924;28;20545;-60
2022/05/22 02:46:14;;;;;;;15.02;6.60;;;;;;;12.58;72.81;101960.31;4979333;28;20041;-60
2022/05/22 02:48:39;;;;;;;19.27;6.60;;;;;;;12.59;72.87;101954.25;4985930;28;20133;-59
2022/05/22 02:51:05;;;;;;;13.27;7.03;;;;;;;12.59;72.66;101948.13;4982756;28;20772;-58
2022/05/22 02:53:31;;;;;;;16.08;6.95;;;;;;;12.59;72.65;101951.63;4988078;28;20773;-58
2022/05/22 02:55:56;;;;;;;12.93;6.00;;;;;;;12.59;72.67;101962.09;4979222;28;20124;-57
2022/05/22 02:58:22;;;;;;;17.17;7.43;;;;;;;12.59;73.03;101962.09;4976586;28;20549;-59
2022/05/22 03:00:47;;;;;;;14.68;6.60;;;;;;;12.63;73.03;101959.53;4982375;28;20536;-58
2022/05/22 03:03:12;;;;;;;15.30;6.85;;;;;;;12.63;72.86;101959.53;4977863;28;20527;-59
2022/05/22 03:08:21;;;;;;;13.33;6.00;;;;;;;12.60;72.59;101950.78;4979044;28;20444;-60
2022/05/22 03:10:47;;;;;;;13.55;6.70;;;;;;;12.60;72.60;101947.28;4981480;28;20313;-59
2022/05/22 03:13:14;;;;;;;13.50;6.32;;;;;;;12.59;72.55;101948.13;4983822;28;20516;-60
2022/05/22 03:15:39;;;;;;;11.82;6.38;;;;;;;12.58;72.45;101946.34;4979654;28;20038;-59
2022/05/22 03:18:05;;;;;;;13.80;6.55;;;;;;;12.56;72.37;101945.47;4976566;28;20497;-60
2022/05/22 03:20:31;;;;;;;12.00;5.75;;;;;;;12.56;72.21;101937.63;4986098;28;20033;-60
2022/05/22 03:22:59;;;;;;;15.32;6.35;;;;;;;12.53;72.48;101940.16;4984717;28;20044;-59
2022/05/22 03:25:26;;;;;;;14.18;6.18;;;;;;;12.50;72.41;101940.09;4981596;28;20050;-58
2022/05/22 03:27:51;;;;;;;12.27;5.93;;;;;;;12.50;72.35;101937.47;4984994;28;20544;-59
2022/05/22 03:30:17;;;;;;;12.88;6.57;;;;;;;12.47;72.61;101927.81;4976840;28;20111;-60
2022/05/22 03:32:43;;;;;;;14.73;6.60;;;;;;;12.47;72.73;101922.59;4987404;28;20072;-60
2022/05/22 03:35:08;;;;;;;14.52;6.90;;;;;;;12.48;72.89;101928.72;4978609;28;20046;-59
2022/05/22 03:37:34;;;;;;;14.32;6.60;;;;;;;12.48;72.86;101924.38;4983578;28;20394;-59
2022/05/22 03:40:00;;;;;;;15.85;7.15;;;;;;;12.50;72.82;101924.41;4978175;28;20482;-57
2022/05/22 03:42:26;;;;;;;13.68;6.68;;;;;;;12.51;72.71;101926.13;4979067;28;21654;-59
2022/05/22 03:44:52;;;;;;;16.75;7.03;;;;;;;12.53;72.74;101925.34;4978367;28;20073;-59
2022/05/22 03:47:17;;;;;;;13.57;7.00;;;;;;;12.56;73.21;101919.31;4986366;28;20125;-59
2022/05/22 03:49:43;;;;;;;12.88;6.75;;;;;;;12.60;73.13;101913.28;4978677;28;20050;-58
2022/05/22 03:52:08;;;;;;;12.02;6.88;;;;;;;12.65;73.24;101911.63;4974858;28;20049;-60
2022/05/22 03:54:34;;;;;;;13.52;7.13;;;;;;;12.72;73.62;101902.19;4985342;28;20143;-58
2022/05/22 03:56:59;;;;;;;16.50;7.05;;;;;;;12.80;73.31;101909.34;4988414;28;20112;-59
2022/05/22 03:59:25;;;;;;;16.48;7.53;;;;;;;12.89;73.41;101909.53;4975858;28;20044;-60
2022/05/22 04:01:51;;;;;;;22.25;8.02;;;;;;;13.00;74.17;101913.25;4977812;28;20049;-59
2022/05/22 04:04:16;;;;;;;22.20;8.10;;;;;;;13.22;74.25;101903.25;4973538;28;20054;-60
2022/05/22 04:06:41;;;;;;;21.13;7.90;;;;;;;13.37;74.36;101899.16;4986090;28;20062;-59
2022/05/22 04:09:08;;;;;;;18.35;7.63;;;;;;;13.50;74.48;101902.00;4981929;28;20459;-58
2022/05/22 04:11:34;;;;;;;16.48;7.07;;;;;;;13.60;73.80;101896.06;4982970;28;20267;-59
2022/05/22 04:14:02;;;;;;;21.20;8.63;;;;;;;13.66;73.26;101896.19;4981905;28;20112;-59
2022/05/22 04:16:27;;;;;;;23.48;9.50;;;;;;;13.75;73.00;101893.69;4979322;28;20115;-59
2022/05/22 04:18:53;;;;;;;25.50;10.60;;;;;;;13.83;72.56;101886.84;4982020;28;20497;-59
2022/05/22 04:21:18;;;;;;;19.88;10.18;;;;;;;13.94;72.41;101894.88;4982963;28;20050;-59
2022/05/22 04:26:31;;;;;;;23.70;13.37;;;;;;;14.05;71.75;101891.56;4978145;28;20476;-60
2022/05/22 04:28:56;;;;;;;23.95;12.38;;;;;;;14.06;71.77;101893.34;4985424;28;20141;-58
2022/05/22 04:31:22;;;;;;;21.02;9.32;;;;;;;14.14;71.49;101907.47;4982857;28;20050;-60
2022/05/22 04:33:47;;;;;;;20.50;9.57;;;;;;;14.18;71.53;101897.88;4980977;28;20050;-59
2022/05/22 04:36:12;;;;;;;20.67;9.77;;;;;;;14.18;71.42;101895.25;4976417;28;20453;-60
2022/05/22 04:38:38;;;;;;;23.88;12.63;;;;;;;14.28;71.56;101898.88;4983750;28;20113;-58
2022/05/22 04:41:03;;;;;;;27.80;19.10;;;;;;;14.49;70.12;101891.38;4980455;28;20042;-59
2022/05/22 04:43:31;;;;;;;22.58;15.45;;;;;;;14.70;68.87;101899.50;4977510;28;20556;-60
2022/05/22 04:45:57;;;;;;;21.00;12.77;;;;;;;14.81;68.20;101895.28;4984319;28;20117;-60
2022/05/22 04:48:25;;;;;;;15.57;9.00;;;;;;;15.18;66.82;101885.22;4977245;28;20041;-59
2022/05/22 04:50:52;;;;;;;21.20;9.05;;;;;;;15.79;65.34;101892.84;4981832;28;20096;-59
2022/05/22 04:53:22;;;;;;;18.02;6.80;;;;;;;16.44;62.52;101886.25;4980912;28;20050;-59
2022/05/22 04:55:47;;;;;;;14.00;5.60;;;;;;;17.26;60.77;101881.34;4977098;28;20050;-59
2022/05/22 04:58:16;;;;;;;16.13;5.70;;;;;;;17.76;58.51;101881.38;4971239;28;20038;-57
2022/05/22 05:00:41;;;;;;;13.88;6.03;;;;;;;17.96;57.24;101882.25;4981118;28;20176;-59
2022/05/22 05:03:07;;;;;;;13.63;5.50;;;;;;;18.13;56.75;101884.88;4983827;28;20045;-57
2022/05/22 05:05:32;;;;;;;13.00;5.70;;;;;;;18.24;56.60;101885.72;4981764;28;20072;-60
2022/05/22 05:08:00;;;;;;;12.80;5.55;;;;;;;17.63;57.74;101875.22;4984485;28;20431;-59
2022/05/22 05:10:26;;;;;;;15.57;6.15;;;;;;;17.16;58.67;101880.41;4980278;28;20353;-60
2022/05/22 05:12:52;;;;;;;15.15;6.32;;;;;;;16.89;59.77;101878.59;4985414;28;20042;-59
2022/05/22 05:15:20;;;;;;;15.35;6.30;;;;;;;16.55;61.25;101889.81;4979322;28;20297;-59
2022/05/22 05:17:47;;;;;;;15.30;6.20;;;;;;;16.73;60.97;101895.19;4980511;28;20464;-60
2022/05/22 05:20:16;;;;;;;14.85;6.35;;;;;;;16.52;61.34;101882.78;4973961;28;20493;-59
2022/05/22 05:22:42;;;;;;;17.83;7.20;;;;;;;16.36;61.99;101893.22;4981097;28;20054;-60
2022/05/22 05:25:08;;;;;;;13.10;6.47;;;;;;;16.40;62.48;101895.91;4980356;28;20061;-59
2022/05/22 05:27:34;;;;;;;15.43;6.47;;;;;;;16.53;63.08;101894.19;4983895;28;20377;-59
2022/05/22 05:30:01;;;;;;;14.18;6.47;;;;;;;16.73;62.41;101900.47;4980993;28;20401;-59
2022/05/22 05:32:27;;;;;;;15.23;6.47;;;;;;;16.72;61.98;101900.44;4979408;28;20141;-60
2022/05/22 05:35:00;;;;;;;15.32;6.78;;;;;;;16.75;62.32;101895.22;4982947;28;20280;-59
2022/05/22 05:37:25;;;;;;;14.75;6.38;;;;;;;16.65;61.99;101893.41;4985171;28;20406;-59
2022/05/22 05:39:52;;;;;;;16.30;6.28;;;;;;;16.71;62.14;101898.72;4980481;28;20782;-59
2022/05/22 05:42:17;;;;;;;15.30;6.43;;;;;;;16.67;62.45;101899.56;4972487;28;20436;-58
2022/05/22 05:44:43;;;;;;;16.40;6.20;;;;;;;16.77;61.28;101896.97;4983026;28;20040;-60
2022/05/22 05:47:10;;;;;;;14.40;6.20;;;;;;;16.84;61.49;101897.88;4982894;28;20037;-60
2022/05/22 05:49:39;;;;;;;15.88;5.88;;;;;;;16.97;61.33;101895.28;4982948;28;20054;-60
2022/05/22 05:52:05;;;;;;;12.20;5.53;;;;;;;17.70;60.34;101892.81;4979426;28;20698;-60
2022/05/22 05:54:32;;;;;;;15.73;4.97;;;;;;;18.75;55.92;101890.03;4978055;28;20088;-58
2022/05/22 05:56:58;;;;;;;14.18;5.28;;;;;;;19.79;53.20;101895.56;4986582;28;20109;-59
2022/05/22 05:59:23;;;;;;;11.73;4.85;;;;;;;20.49;50.24;101893.13;4988504;28;20060;-60
2022/05/22 06:01:49;;;;;;;14.85;5.22;;;;;;;21.26;49.31;101885.97;4987919;28;20049;-59
2022/05/22 06:04:14;;;;;;;13.63;5.15;;;;;;;22.15;46.53;101880.09;4976690;28;20044;-59
2022/05/22 06:06:39;;;;;;;11.75;4.90;;;;;;;23.12;44.43;101877.25;4992442;28;20085;-59
2022/05/22 06:09:05;;;;;;;10.50;4.68;;;;;;;23.31;43.39;101875.91;4980038;28;20046;-59
2022/05/22 06:11:30;;;;;;;17.17;4.75;;;;;;;22.90;43.64;101871.53;4983675;28;20464;-60
2022/05/22 06:13:56;;;;;;;9.98;4.10;;;;;;;23.19;43.41;101869.09;4979950;28;20049;-58
2022/05/22 06:16:22;;;;;;;8.73;4.05;;;;;;;23.39;43.21;101864.19;4981163;28;20089;-59
2022/05/22 06:18:48;;;;;;;10.45;4.22;;;;;;;23.95;42.27;101875.25;4984318;28;20076;-60
2022/05/22 06:21:17;;;;;;;13.07;4.25;;;;;;;24.93;39.48;101860.97;4983926;28;20144;-60
2022/05/22 06:23:42;;;;;;;12.13;4.32;;;;;;;24.82;39.13;101857.72;4984241;28;20069;-59
2022/05/22 06:26:09;;;;;;;12.13;4.10;;;;;;;25.09;40.08;101864.00;4971695;28;20112;-60
2022/05/22 06:28:35;;;;;;;8.25;3.80;;;;;;;26.45;36.20;101876.38;4986081;28;20037;-59
2022/05/22 06:31:01;;;;;;;9.57;3.70;;;;;;;26.55;35.71;101875.97;4985964;28;20103;-61
2022/05/22 06:33:28;;;;;;;12.05;4.30;;;;;;;26.95;34.99;101875.38;4984374;28;20046;-63
2022/05/22 06:35:54;;;;;;;11.32;3.80;;;;;;;26.06;37.38;101878.63;4980710;28;20053;-60
2022/05/22 06:41:08;;;;;;;10.38;3.92;;;;;;;26.20;37.21;101874.53;4978735;28;20104;-61
2022/05/22 06:43:34;;;;;;;10.20;4.03;;;;;;;26.07;36.75;101883.03;4985052;28;20050;-61
2022/05/22 06:46:00;;;;;;;10.30;3.83;;;;;;;25.98;36.39;101878.91;4979150;28;20038;-58
2022/05/22 06:48:25;;;;;;;11.30;4.18;;;;;;;25.20;37.68;101883.22;4975649;28;20145;-59
2022/05/22 06:50:51;;;;;;;8.50;3.85;;;;;;;25.42;37.66;101875.44;4958550;28;20042;-60
2022/05/22 06:53:20;;;;;;;10.18;3.85;;;;;;;25.15;37.63;101877.16;4980972;28;20493;-59
2022/05/22 06:55:46;;;;;;;11.48;3.80;;;;;;;24.87;38.10;101881.56;4976814;28;20065;-59
2022/05/22 06:58:11;;;;;;;11.43;4.10;;;;;;;24.57;40.19;101891.34;4987184;28;20153;-60
2022/05/22 07:00:36;;;;;;;9.82;3.75;;;;;;;25.33;38.83;101889.94;4980718;28;20045;-59
2022/05/22 07:03:02;;;;;;;12.93;4.03;;;;;;;24.74;38.71;101888.19;4988109;28;20038;-61
2022/05/22 07:05:27;;;;;;;9.00;3.60;;;;;;;24.76;38.15;101895.25;4980246;28;20061;-60
2022/05/22 07:07:53;;;;;;;11.95;3.75;;;;;;;24.61;41.18;101885.88;4975862;28;20528;-60
2022/05/22 07:11:37;;;;;;;9.25;3.70;;;;;;;24.63;39.86;101884.06;4959743;28;20383;-59
2022/05/22 07:13:04;;;;;;;8.68;3.42;;;;;;;25.04;38.77;101866.84;4981058;28;20328;-59
2022/05/22 07:15:29;;;;;;;10.52;3.53;;;;;;;25.20;38.33;101867.22;4977901;28;20681;-59
2022/05/22 07:17:55;;;;;;;8.73;3.80;;;;;;;25.11;37.36;101869.31;4972991;28;20516;-60
2022/05/22 07:20:20;;;;;;;11.57;3.83;;;;;;;25.12;36.37;101860.38;4966352;28;20527;-59
2022/05/22 07:22:45;;;;;;;8.95;3.40;;;;;;;25.09;38.14;101865.81;4980194;28;20550;-60
2022/05/22 07:25:11;;;;;;;9.73;3.47;;;;;;;25.38;38.56;101863.06;4986157;28;20049;-60
2022/05/22 07:27:36;;;;;;;8.25;3.40;;;;;;;26.28;35.54;101870.75;4979344;28;20284;-60
2022/05/22 07:30:02;;;;;;;8.25;3.45;;;;;;;25.82;36.05;101869.66;4975089;28;20032;-59
2022/05/22 07:32:27;;;;;;;8.27;2.88;;;;;;;25.92;38.28;101864.88;4975146;28;20070;-59
2022/05/22 07:34:52;;;;;;;9.93;3.47;;;;;;;25.22;36.05;101867.19;4982814;28;20371;-60
2022/05/22 07:37:18;;;;;;;7.53;3.13;;;;;;;25.05;37.12;101868.59;4980980;28;20104;-59
2022/05/22 07:39:43;;;;;;;11.65;3.25;;;;;;;25.53;36.90;101864.38;4994738;28;20485;-59
2022/05/22 07:42:08;;;;;;;9.82;3.20;;;;;;;25.62;36.15;101854.28;4972008;28;20042;-60
2022/05/22 07:44:34;;;;;;;7.30;2.88;;;;;;;26.00;34.25;101853.00;4980421;28;20053;-60
2022/05/22 07:46:59;;;;;;;10.32;3.50;;;;;;;26.50;34.99;101859.22;4981656;28;20151;-60
2022/05/22 07:52:10;;;;;;;8.45;2.88;;;;;;;27.54;32.15;101849.81;4970069;28;20068;-59
2022/05/22 07:54:38;;;;;;;6.57;2.70;;;;;;;27.32;32.00;101845.34;4981692;28;20343;-60
2022/05/22 07:57:05;;;;;;;8.40;3.00;;;;;;;27.21;32.65;101839.50;4976565;28;20273;-59
2022/05/22 07:59:37;;;;;;;5.90;2.47;;;;;;;27.17;31.19;101840.59;4977748;28;20046;-61
2022/05/22 08:02:04;;;;;;;8.03;3.13;;;;;;;26.63;32.63;101840.91;4977287;28;20034;-59
2022/05/22 08:04:30;;;;;;;7.30;2.95;;;;;;;26.45;32.69;101837.13;4973510;28;20038;-60
2022/05/22 08:06:56;;;;;;;9.15;2.83;;;;;;;27.18;31.58;101834.28;4980543;28;20058;-60
2022/05/22 08:09:21;;;;;;;10.05;3.35;;;;;;;26.97;32.62;101825.31;4978884;28;20033;-61
2022/05/22 08:11:47;;;;;;;9.32;3.38;;;;;;;26.85;32.74;101822.22;4982232;28;20708;-60
2022/05/22 08:14:13;;;;;;;8.95;2.78;;;;;;;27.04;32.04;101817.91;4968979;28;20030;-60
2022/05/22 08:16:40;;;;;;;6.20;2.80;;;;;;;26.81;31.77;101818.78;4979816;28;20049;-60
2022/05/22 08:19:05;;;;;;;8.07;2.67;;;;;;;27.17;32.11;101812.94;4981178;28;20093;-60
2022/05/22 08:21:31;;;;;;;9.18;3.13;;;;;;;27.14;32.27;101810.41;4979219;28;20038;-60
2022/05/22 08:23:56;;;;;;;7.45;3.00;;;;;;;27.49;30.82;101817.84;4977215;28;20050;-59
2022/05/22 08:26:22;;;;;;;7.72;3.63;;;;;;;26.80;32.15;101806.34;4968543;28;20064;-60
2022/05/22 08:28:48;;;;;;;9.30;3.70;;;;;;;27.02;31.66;101799.22;5001927;28;20382;-60
2022/05/22 08:31:14;;;;;;;8.27;3.13;;;;;;;26.60;31.35;101800.88;4978065;28;20294;-60
2022/05/22 08:33:39;;;;;;;7.55;2.58;;;;;;;26.55;31.93;101797.53;4984910;28;20084;-60
2022/05/22 08:36:05;;;;;;;7.60;2.33;;;;;;;26.25;32.96;101799.56;4973423;28;20497;-60
2022/05/22 08:38:30;;;;;;;6.13;1.83;;;;;;;25.88;30.24;101799.09;4979855;28;20528;-59
2022/05/22 08:41:10;;;;;;;10.70;2.20;;;;;;;25.90;32.24;101797.25;4986523;28;20319;-59
2022/05/22 08:43:43;;;;;;;5.68;2.20;;;;;;;25.43;31.26;101800.59;4973434;28;20042;-58
2022/05/22 08:46:18;;;;;;;7.50;2.10;;;;;;;25.48;34.57;101791.59;4968703;28;20049;-59
2022/05/22 08:48:56;;;;;;;6.53;1.92;;;;;;;24.74;31.10;101778.84;4977215;28;20125;-59
2022/05/22 08:51:44;;;;;;;6.60;2.88;;;;;;;23.96;35.16;101786.44;4984682;28;20077;-59
2022/05/22 08:54:22;;;;;;;7.57;2.92;;;;;;;23.86;33.41;101788.47;4970591;28;20557;-59
2022/05/22 08:59:34;;;;;;;8.38;2.60;;;;;;;23.91;37.40;101783.00;4976415;28;20570;-58
2022/05/22 09:02:25;;;;;;;10.02;3.00;;;;;;;24.26;37.35;101790.06;4977892;28;20313;-60
2022/05/22 09:05:02;;;;;;;9.13;2.38;;;;;;;24.23;33.18;101774.13;4977763;28;20561;-59
2022/05/22 09:08:00;;;;;;;8.43;3.20;;;;;;;24.53;36.48;101775.03;4981210;28;20045;-58
2022/05/22 09:10:37;;;;;;;8.85;3.28;;;;;;;24.33;37.01;101762.31;4974329;28;23367;-58
2022/05/22 09:13:34;;;;;;;8.02;4.28;;;;;;;23.85;37.27;101773.38;4978777;28;20424;-59
2022/05/22 09:16:28;;;;;;;9.63;4.10;;;;;;;24.17;39.93;101763.63;4980144;28;20564;-56
2022/05/22 09:19:17;;;;;;;8.95;4.20;;;;;;;24.30;36.47;101758.84;4977707;28;20046;-58
2022/05/22 09:22:15;;;;;;;5.63;3.55;;;;;;;24.35;36.65;101748.91;4975012;28;20045;-58
2022/05/22 09:24:56;;;;;;;10.02;3.42;;;;;;;24.40;37.30;101749.66;4976185;28;20038;-58
2022/05/22 09:27:35;;;;;;;8.73;3.15;;;;;;;24.39;35.89;101751.47;4975676;28;20176;-58
2022/05/22 09:30:09;;;;;;;6.80;3.13;;;;;;;24.36;34.20;101740.00;4975447;28;20045;-59
2022/05/22 09:32:47;;;;;;;5.95;2.85;;;;;;;24.53;35.82;101746.56;4980738;28;20046;-58
2022/05/22 09:35:34;;;;;;;6.40;2.67;;;;;;;24.52;33.86;101742.16;4975607;28;20287;-59
2022/05/22 09:38:25;;;;;;;6.18;2.40;;;;;;;24.40;34.52;101745.19;4976307;28;20116;-58
2022/05/22 09:41:07;;;;;;;6.90;2.70;;;;;;;24.43;35.59;101738.91;4977431;28;20050;-59
2022/05/22 09:43:53;;;;;;;11.00;3.40;;;;;;;24.13;35.24;101730.88;4975198;28;20041;-58
2022/05/22 09:46:37;;;;;;;8.75;3.03;;;;;;;24.27;35.26;101731.38;4975187;28;20448;-59
2022/05/22 09:49:06;;;;;;;9.10;2.95;;;;;;;24.12;34.51;101733.59;4979366;28;20030;-59
2022/05/22 09:51:54;;;;;;;7.00;3.10;;;;;;;24.02;35.98;101734.78;4983286;28;20113;-58
2022/05/22 09:54:31;;;;;;;10.52;2.95;;;;;;;24.02;36.21;101730.31;4970080;28;20577;-58
2022/05/22 09:57:05;;;;;;;7.72;3.40;;;;;;;24.01;34.74;101731.25;4976816;28;20391;-58
2022/05/22 09:59:49;;;;;;;12.00;3.40;;;;;;;24.37;34.65;101731.97;4976283;28;20640;-59
2022/05/22 10:02:26;;;;;;;;;;;;;;;24.47;33.71;101733.44;4973180;28;20045;-57
2022/05/22 10:05:19;;;;;;;6.63;2.65;;;;;;;24.44;35.01;101730.88;4979141;28;20272;-59
2022/05/22 10:08:06;;;;;;;7.22;2.90;;;;;;;24.33;34.88;101733.00;4982255;28;20041;-59
2022/05/22 10:10:52;;;;;;;7.47;2.72;;;;;;;24.27;36.18;101717.19;4975209;28;20050;-60
2022/05/22 10:13:29;;;;;;;7.45;2.80;;;;;;;24.72;36.58;101730.00;4974610;28;20096;-58
2022/05/22 10:16:17;;;;;;;7.97;2.63;;;;;;;24.88;34.77;101716.16;4976422;28;20491;-58
2022/05/22 10:18:48;;;;;;;4.90;2.60;;;;;;;24.93;37.83;101724.03;4977370;28;20034;-58
2022/05/22 10:21:34;;;;;;;9.38;2.72;;;;;;;24.48;32.64;101708.53;4977089;28;20048;-60
2022/05/22 10:24:31;;;;;;;4.82;2.08;;;;;;;24.36;33.45;101708.03;4976270;28;20060;-58
2022/05/22 10:27:19;;;;;;;6.47;2.50;;;;;;;24.66;32.94;101710.63;4975760;28;20053;-57
2022/05/22 10:30:01;;;;;;;6.72;2.65;;;;;;;24.50;32.64;101704.03;4981641;28;20113;-57
2022/05/22 10:32:55;;;;;;;6.38;2.40;;;;;;;24.86;32.55;101701.09;4973940;28;20042;-59
2022/05/22 10:35:38;;;;;;;7.03;2.35;;;;;;;24.99;31.85;101697.16;4975938;28;20034;-60
2022/05/22 10:38:21;;;;;;;7.60;2.50;;;;;;;25.00;33.34;101686.44;4969667;28;20037;-63
2022/05/22 10:43:37;;;;;;;7.47;2.60;;;;;;;24.79;34.32;101686.22;4974948;28;20072;-58
2022/05/22 10:46:03;;;;;;;6.32;2.95;;;;;;;24.68;32.44;101683.91;4978500;28;20782;-60
2022/05/22 10:48:31;;;;;;;6.45;3.00;;;;;;;24.85;31.35;101680.69;4978982;28;20786;-59
2022/05/22 10:51:08;;;;;;;6.40;2.50;;;;;;;24.82;33.85;101668.34;4980017;28;20103;-58
2022/05/22 10:53:45;;;;;;;6.65;2.45;;;;;;;24.71;34.01;101669.59;4975353;28;20051;-58
2022/05/22 10:56:14;;;;;;;8.02;2.60;;;;;;;24.92;35.92;101660.94;4972297;28;20330;-59
2022/05/22 10:58:48;;;;;;;6.25;2.33;;;;;;;24.75;34.25;101665.91;4980983;28;20045;-59
2022/05/22 11:01:20;;;;;;;6.93;2.50;;;;;;;24.41;33.95;101661.66;4980000;28;20046;-58
2022/05/22 11:03:47;;;;;;;7.25;2.85;;;;;;;24.79;31.09;101652.44;4981172;28;20821;-58
2022/05/22 11:06:21;;;;;;;5.82;2.60;;;;;;;24.78;32.21;101649.81;4977289;28;20065;-59
2022/05/22 11:08:50;;;;;;;7.72;2.80;;;;;;;24.65;33.35;101658.22;4982354;28;20070;-57
2022/05/22 11:11:27;;;;;;;6.97;2.88;;;;;;;24.45;32.29;101652.66;4983682;28;20048;-58
2022/05/22 11:14:03;;;;;;;12.88;2.80;;;;;;;24.59;34.09;101658.41;4981206;28;20144;-59
2022/05/22 11:16:29;;;;;;;8.60;3.08;;;;;;;24.35;32.76;101645.84;4979528;28;20179;-59
2022/05/22 11:19:10;;;;;;;7.00;3.00;;;;;;;24.44;32.45;101644.72;4983487;28;20461;-57
2022/05/22 11:22:11;;;;;;;6.40;2.40;;;;;;;24.09;32.55;101641.28;4982044;28;20069;-59
2022/05/22 11:24:54;;;;;;;9.20;3.28;;;;;;;24.44;32.81;101648.25;4975649;28;20046;-58
2022/05/22 11:27:52;;;;;;;6.60;2.85;;;;;;;24.53;32.84;101647.94;4978851;28;20045;-59
2022/05/22 11:31:00;;;;;;;8.45;3.28;;;;;;;24.75;34.14;101636.59;4974113;28;20040;-60
2022/05/22 11:33:40;;;;;;;7.40;3.30;;;;;;;24.96;35.50;101635.88;4973830;28;20547;-59
2022/05/22 11:36:14;;;;;;;7.03;3.40;;;;;;;24.90;34.77;101623.63;4976077;28;20045;-61
2022/05/22 11:38:42;;;;;;;7.75;3.30;;;;;;;25.31;35.47;101616.84;4976901;28;20038;-59
2022/05/22 11:41:25;;;;;;;11.45;3.33;;;;;;;24.83;33.39;101624.72;4981390;28;20060;-60
2022/05/22 11:44:05;;;;;;;9.15;3.40;;;;;;;25.24;32.29;101611.78;4982084;28;20405;-58
2022/05/22 11:46:49;;;;;;;8.80;2.95;;;;;;;25.24;31.90;101609.13;4978902;28;20188;-59
2022/05/22 11:49:48;;;;;;;6.82;3.35;;;;;;;24.93;32.59;101604.00;4973531;28;20050;-59
2022/05/22 11:55:33;;;;;;;7.57;3.42;;;;;;;24.76;33.97;101596.53;4979689;28;20108;-60
2022/05/22 11:58:11;;;;;;;7.15;3.05;;;;;;;24.82;33.00;101596.34;4980914;28;20376;-59